Ankara, Turkey
Current Conditions -  °F | °C
As of 1:50 AM on Saturday 29 Nov 2014 (Local Time) from LTAC Reporting Station
Clear Clear  
Wind Chill: 23°   Ceiling: Unl
Heat Index: 28°   Visibility: 5mi
Dew Point: 27°   Wind: 5mph
Humidity: 93%   Direction: 80°E
Pressure: 30.27"   Gusts: NA
Location:  39.93°N, 32.85°E
Report Text: LTAC 282250Z 08004KT 8000 NSC M02/M03 Q1025 NOSIG
Loading
Personal Weather Stations






























Interactive Weather Map New forecast layout! Learn more

10-Day Weather Forecast

Advertisements
Track Severe Weather on mobile